createdAt,value
2019-05-25T00:01:44.513Z,95208.00
2019-05-25T00:04:14.945Z,95193.00
2019-05-25T00:06:45.371Z,95190.00
2019-05-25T00:09:15.913Z,95190.00
2019-05-25T00:11:46.374Z,95179.00
2019-05-25T00:14:16.795Z,95183.00
2019-05-25T00:16:47.227Z,95176.00
2019-05-25T00:19:17.668Z,95181.00
2019-05-25T00:21:48.086Z,95177.00
2019-05-25T00:24:18.457Z,95187.00
2019-05-25T00:26:48.887Z,95185.00
2019-05-25T00:29:19.313Z,95174.00
2019-05-25T00:31:49.778Z,95170.00
2019-05-25T00:34:20.173Z,95173.00
2019-05-25T00:36:50.584Z,95168.00
2019-05-25T00:39:20.983Z,95176.00
2019-05-25T00:41:51.448Z,95181.00
2019-05-25T00:44:21.833Z,95174.00
2019-05-25T00:46:52.237Z,95181.00
2019-05-25T00:49:22.821Z,95179.00
2019-05-25T00:51:53.297Z,95179.00
2019-05-25T00:54:27.930Z,95184.00
2019-05-25T00:56:55.979Z,95180.00
2019-05-25T00:59:26.383Z,95177.00
2019-05-25T01:01:56.874Z,95180.00
2019-05-25T01:04:27.381Z,95172.00
2019-05-25T01:06:57.805Z,95168.00
2019-05-25T01:09:28.198Z,95174.00
2019-05-25T01:11:58.640Z,95162.00
2019-05-25T01:14:29.069Z,95171.00
2019-05-25T01:16:59.513Z,95165.00
2019-05-25T01:19:29.957Z,95166.00
2019-05-25T01:22:00.397Z,95169.00
2019-05-25T01:24:43.233Z,95168.00
2019-05-25T01:27:03.406Z,95168.00
2019-05-25T01:29:33.885Z,95174.00
2019-05-25T01:32:04.299Z,95173.00
2019-05-25T01:34:34.756Z,95166.00
2019-05-25T01:37:05.146Z,95176.00
2019-05-25T01:39:35.749Z,95169.00
2019-05-25T01:42:06.185Z,95175.00
2019-05-25T01:44:36.656Z,95177.00
2019-05-25T01:47:07.074Z,95172.00
2019-05-25T01:49:37.529Z,95168.00
2019-05-25T01:52:07.935Z,95170.00
2019-05-25T01:54:38.374Z,95159.00
2019-05-25T01:57:08.851Z,95159.00
2019-05-25T01:59:39.245Z,95168.00
2019-05-25T02:02:09.659Z,95168.00
2019-05-25T02:04:40.138Z,95176.00
2019-05-25T02:07:10.546Z,95175.00
2019-05-25T02:09:41.003Z,95181.00
2019-05-25T02:12:11.436Z,95177.00
2019-05-25T02:14:42.038Z,95183.00
2019-05-25T02:17:12.428Z,95183.00
2019-05-25T02:19:42.852Z,95182.00
2019-05-25T02:22:13.260Z,95176.00
2019-05-25T02:24:43.732Z,95176.00
2019-05-25T02:27:14.198Z,95180.00
2019-05-25T02:29:44.632Z,95165.00
2019-05-25T02:32:15.146Z,95175.00
2019-05-25T02:34:45.646Z,95178.00
2019-05-25T02:37:16.182Z,95176.00
2019-05-25T02:39:46.617Z,95174.00
2019-05-25T02:42:17.031Z,95180.00
2019-05-25T02:44:47.468Z,95181.00
2019-05-25T02:47:17.850Z,95167.00
2019-05-25T02:49:48.271Z,95174.00
2019-05-25T02:52:18.673Z,95174.00
2019-05-25T02:54:49.118Z,95167.00
2019-05-25T02:57:20.180Z,95175.00
2019-05-25T02:59:50.640Z,95167.00
2019-05-25T03:02:21.172Z,95175.00
2019-05-25T03:04:51.610Z,95173.00
2019-05-25T03:07:23.606Z,95177.00
2019-05-25T03:09:56.046Z,95177.00
2019-05-25T03:12:27.536Z,95183.00
2019-05-25T03:14:57.979Z,95182.00
2019-05-25T03:17:28.390Z,95178.00
2019-05-25T03:19:58.872Z,95171.00
2019-05-25T03:22:29.365Z,95176.00
2019-05-25T03:24:59.800Z,95181.00
2019-05-25T03:27:30.207Z,95182.00
2019-05-25T03:30:00.564Z,95168.00
2019-05-25T03:32:31.003Z,95180.00
2019-05-25T03:35:01.497Z,95177.00
2019-05-25T03:37:32.017Z,95181.00
2019-05-25T03:40:02.473Z,95181.00
2019-05-25T03:42:32.956Z,95182.00
2019-05-25T03:45:03.344Z,95175.00
2019-05-25T03:47:33.755Z,95178.00
2019-05-25T03:50:04.873Z,95177.00
2019-05-25T03:52:35.349Z,95190.00
2019-05-25T03:55:06.558Z,95188.00
2019-05-25T03:57:36.954Z,95181.00
2019-05-25T04:00:07.992Z,95180.00
2019-05-25T04:02:38.511Z,95183.00
2019-05-25T04:05:08.986Z,95174.00
2019-05-25T04:07:39.480Z,95179.00
2019-05-25T04:10:10.206Z,95184.00
2019-05-25T04:12:40.637Z,95187.00
2019-05-25T04:15:11.312Z,95179.00
2019-05-25T04:17:42.318Z,95188.00
2019-05-25T04:20:12.738Z,95187.00
2019-05-25T04:22:43.242Z,95188.00
2019-05-25T04:25:13.798Z,95194.00
2019-05-25T04:27:46.924Z,95206.00
2019-05-25T04:30:19.672Z,95203.00
2019-05-25T04:32:50.101Z,95210.00
2019-05-25T04:35:20.498Z,95206.00
2019-05-25T04:37:51.011Z,95197.00
2019-05-25T04:40:23.069Z,95208.00
2019-05-25T04:42:53.821Z,95203.00
2019-05-25T04:45:24.277Z,95198.00
2019-05-25T04:47:54.683Z,95211.00
2019-05-25T04:50:25.422Z,95216.00
2019-05-25T04:52:56.362Z,95206.00
2019-05-25T04:55:26.747Z,95215.00
2019-05-25T04:57:57.166Z,95208.00
2019-05-25T05:00:27.579Z,95206.00
2019-05-25T05:02:58.090Z,95211.00
2019-05-25T05:05:28.549Z,95217.00
2019-05-25T05:07:58.964Z,95216.00
2019-05-25T05:10:29.386Z,95213.00
2019-05-25T05:12:59.816Z,95209.00
2019-05-25T05:15:30.583Z,95212.00
2019-05-25T05:18:02.600Z,95214.00
2019-05-25T05:20:35.786Z,95213.00
2019-05-25T05:23:06.388Z,95212.00
2019-05-25T05:25:36.922Z,95214.00
2019-05-25T05:28:07.341Z,95217.00
2019-05-25T05:30:37.738Z,95221.00
2019-05-25T05:33:08.169Z,95217.00
2019-05-25T05:35:39.397Z,95211.00
2019-05-25T05:38:09.913Z,95221.00
2019-05-25T05:40:41.323Z,95224.00
2019-05-25T05:43:13.003Z,95229.00
2019-05-25T05:45:47.890Z,95221.00
2019-05-25T05:48:21.615Z,95224.00
2019-05-25T05:50:54.369Z,95226.00
2019-05-25T05:53:26.815Z,95228.00
2019-05-25T05:55:57.291Z,95223.00
2019-05-25T05:58:27.741Z,95222.00
2019-05-25T06:00:58.291Z,95227.00
2019-05-25T06:03:28.819Z,95224.00
2019-05-25T06:05:59.244Z,95227.00
2019-05-25T06:08:33.045Z,95229.00
2019-05-25T06:11:03.727Z,95230.00
2019-05-25T06:13:34.519Z,95232.00
2019-05-25T06:16:04.931Z,95224.00
2019-05-25T06:18:35.628Z,95219.00
2019-05-25T06:21:06.724Z,95224.00
2019-05-25T06:23:37.184Z,95222.00
2019-05-25T06:26:10.844Z,95221.00
2019-05-25T06:28:41.390Z,95218.00
2019-05-25T06:31:12.184Z,95219.00
2019-05-25T06:33:47.253Z,95219.00
2019-05-25T06:36:17.751Z,95220.00
2019-05-25T06:38:48.513Z,95223.00
2019-05-25T06:41:18.986Z,95225.00
2019-05-25T06:43:49.518Z,95233.00
2019-05-25T06:46:20.031Z,95229.00
2019-05-25T06:48:50.857Z,95228.00
2019-05-25T06:51:22.475Z,95230.00
2019-05-25T06:53:58.727Z,95237.00
2019-05-25T06:56:29.183Z,95235.00
2019-05-25T06:58:59.592Z,95237.00
2019-05-25T07:01:30.018Z,95231.00
2019-05-25T07:04:00.406Z,95234.00
2019-05-25T07:06:31.037Z,95247.00
2019-05-25T07:09:36.448Z,95237.00
2019-05-25T07:12:07.466Z,95235.00
2019-05-25T07:14:38.021Z,95238.00
2019-05-25T07:17:08.436Z,95239.00
2019-05-25T07:19:38.896Z,95238.00
2019-05-25T07:22:09.318Z,95247.00
2019-05-25T07:24:39.830Z,95239.00
2019-05-25T07:27:10.325Z,95240.00
2019-05-25T07:29:40.783Z,95245.00
2019-05-25T07:32:11.748Z,95242.00
2019-05-25T07:34:42.454Z,95249.00
2019-05-25T07:37:12.956Z,95251.00
2019-05-25T07:39:43.517Z,95241.00
2019-05-25T07:42:13.975Z,95254.00
2019-05-25T07:44:44.444Z,95253.00
2019-05-25T07:47:15.074Z,95261.00
2019-05-25T07:49:45.515Z,95257.00
2019-05-25T07:52:15.938Z,95256.00
2019-05-25T07:54:47.074Z,95263.00
2019-05-25T07:57:17.524Z,95262.00
2019-05-25T07:59:47.936Z,95263.00
2019-05-25T08:02:18.339Z,95263.00
2019-05-25T08:04:48.762Z,95267.00
2019-05-25T08:07:19.191Z,95261.00
2019-05-25T08:09:49.585Z,95268.00
2019-05-25T08:12:19.979Z,95275.00
2019-05-25T08:14:50.398Z,95267.00
2019-05-25T08:17:20.785Z,95263.00
2019-05-25T08:19:51.254Z,95265.00
2019-05-25T08:22:21.670Z,95265.00
2019-05-25T08:24:52.090Z,95268.00
2019-05-25T08:27:22.620Z,95278.00
2019-05-25T08:29:52.991Z,95269.00
2019-05-25T08:32:23.438Z,95271.00
2019-05-25T08:34:53.905Z,95269.00
2019-05-25T08:37:24.409Z,95283.00
2019-05-25T08:39:54.803Z,95279.00
2019-05-25T08:42:25.243Z,95277.00
2019-05-25T08:44:55.667Z,95269.00
2019-05-25T08:47:26.095Z,95281.00
2019-05-25T08:49:56.591Z,95276.00
2019-05-25T08:52:27.003Z,95265.00
2019-05-25T08:54:57.426Z,95269.00
2019-05-25T08:57:27.844Z,95268.00
2019-05-25T08:59:58.263Z,95268.00
2019-05-25T09:02:28.721Z,95267.00
2019-05-25T09:04:59.125Z,95262.00
2019-05-25T09:07:29.587Z,95267.00
2019-05-25T09:09:59.965Z,95270.00
2019-05-25T09:12:30.385Z,95273.00
2019-05-25T09:15:00.746Z,95269.00
2019-05-25T09:17:31.189Z,95276.00
2019-05-25T09:20:02.288Z,95276.00
2019-05-25T09:22:32.715Z,95281.00
2019-05-25T09:25:03.130Z,95276.00
2019-05-25T09:27:33.557Z,95278.00
2019-05-25T09:30:05.113Z,95278.00
2019-05-25T09:32:35.590Z,95276.00
2019-05-25T09:35:06.269Z,95268.00
2019-05-25T09:37:36.683Z,95271.00
2019-05-25T09:40:09.013Z,95267.00
2019-05-25T09:42:40.131Z,95264.00
2019-05-25T09:45:14.173Z,95266.00
2019-05-25T09:47:45.057Z,95269.00
2019-05-25T09:50:16.823Z,95258.00
2019-05-25T09:52:47.219Z,95271.00
2019-05-25T09:55:17.747Z,95257.00
2019-05-25T09:57:48.162Z,95267.00
2019-05-25T10:00:20.363Z,95260.00
2019-05-25T10:02:50.857Z,95257.00
2019-05-25T10:05:21.247Z,95267.00
2019-05-25T10:07:51.700Z,95271.00
2019-05-25T10:10:22.396Z,95254.00
2019-05-25T10:12:53.035Z,95264.00
2019-05-25T10:15:23.446Z,95256.00
2019-05-25T10:17:53.999Z,95269.00
2019-05-25T10:20:25.823Z,95265.00
2019-05-25T10:22:56.259Z,95257.00
2019-05-25T10:25:26.659Z,95262.00
2019-05-25T10:27:57.193Z,95258.00
2019-05-25T10:30:28.848Z,95258.00
2019-05-25T10:32:59.311Z,95251.00
2019-05-25T10:35:29.811Z,95253.00
2019-05-25T10:38:00.233Z,95258.00
2019-05-25T10:40:30.660Z,95256.00
2019-05-25T10:43:01.053Z,95255.00
2019-05-25T10:45:31.535Z,95256.00
2019-05-25T10:48:01.927Z,95243.00
2019-05-25T10:50:32.344Z,95250.00
2019-05-25T10:53:02.897Z,95248.00
2019-05-25T10:55:33.314Z,95252.00
2019-05-25T10:58:03.886Z,95246.00
2019-05-25T11:00:34.346Z,95240.00
2019-05-25T11:03:04.903Z,95235.00
2019-05-25T11:05:35.401Z,95239.00
2019-05-25T11:08:05.955Z,95234.00
2019-05-25T11:10:36.415Z,95236.00
2019-05-25T11:13:06.861Z,95230.00
2019-05-25T11:15:37.369Z,95224.00
2019-05-25T11:18:07.782Z,95227.00
2019-05-25T11:20:38.216Z,95228.00
2019-05-25T11:23:08.627Z,95221.00
2019-05-25T11:25:39.108Z,95220.00
2019-05-25T11:28:09.533Z,95216.00
2019-05-25T11:30:40.021Z,95228.00
2019-05-25T11:33:10.415Z,95218.00
2019-05-25T11:35:40.865Z,95225.00
2019-05-25T11:38:11.345Z,95221.00
2019-05-25T11:40:42.069Z,95209.00
2019-05-25T11:43:12.494Z,95206.00
2019-05-25T11:45:45.328Z,95215.00
2019-05-25T11:48:16.372Z,95215.00
2019-05-25T11:50:46.967Z,95219.00
2019-05-25T11:53:17.410Z,95223.00
2019-05-25T11:55:47.845Z,95210.00
2019-05-25T11:58:18.319Z,95204.00
2019-05-25T12:00:51.588Z,95215.00
2019-05-25T12:03:20.947Z,95215.00
2019-05-25T12:05:51.435Z,95209.00
2019-05-25T12:08:23.616Z,95213.00
2019-05-25T12:10:54.215Z,95216.00
2019-05-25T12:13:24.784Z,95201.00
2019-05-25T12:15:55.217Z,95202.00
2019-05-25T12:18:25.614Z,95202.00
2019-05-25T12:20:56.146Z,95197.00
2019-05-25T12:23:26.565Z,95189.00
2019-05-25T12:25:57.031Z,95197.00
2019-05-25T12:28:27.436Z,95194.00
2019-05-25T12:30:57.910Z,95193.00
2019-05-25T12:33:28.340Z,95177.00
2019-05-25T12:35:58.733Z,95195.00
2019-05-25T12:38:29.213Z,95192.00
2019-05-25T12:40:59.676Z,95201.00
2019-05-25T12:43:30.099Z,95198.00
2019-05-25T12:46:00.523Z,95195.00
2019-05-25T12:48:31.032Z,95184.00
2019-05-25T12:51:01.467Z,95186.00
2019-05-25T12:53:31.896Z,95183.00
2019-05-25T12:56:02.343Z,95191.00
2019-05-25T12:58:32.754Z,95189.00
2019-05-25T13:01:03.285Z,95190.00
2019-05-25T13:03:33.667Z,95186.00
2019-05-25T13:06:04.150Z,95188.00
2019-05-25T13:08:34.818Z,95186.00
2019-05-25T13:11:09.408Z,95191.00
2019-05-25T13:13:37.591Z,95186.00
2019-05-25T13:16:08.078Z,95185.00
2019-05-25T13:18:38.457Z,95183.00
2019-05-25T13:21:08.910Z,95185.00
2019-05-25T13:23:39.304Z,95206.00
2019-05-25T13:26:09.752Z,95192.00
2019-05-25T13:28:42.230Z,95192.00
2019-05-25T13:31:12.650Z,95180.00
2019-05-25T13:33:43.174Z,95190.00
2019-05-25T13:36:13.596Z,95187.00
2019-05-25T13:38:44.094Z,95183.00
2019-05-25T13:41:14.476Z,95188.00
2019-05-25T13:43:49.986Z,95192.00
2019-05-25T13:46:19.291Z,95197.00
2019-05-25T13:48:52.299Z,95202.00
2019-05-25T13:51:24.467Z,95197.00
2019-05-25T13:53:57.386Z,95194.00
2019-05-25T13:56:27.817Z,95201.00
2019-05-25T13:58:59.041Z,95202.00
2019-05-25T14:01:29.831Z,95203.00
2019-05-25T14:04:00.283Z,95205.00
2019-05-25T14:06:30.805Z,95202.00
2019-05-25T14:09:01.261Z,95205.00
2019-05-25T14:11:31.919Z,95187.00
2019-05-25T14:14:02.393Z,95192.00
2019-05-25T14:16:33.003Z,95195.00
2019-05-25T14:19:03.674Z,95190.00
2019-05-25T14:21:38.597Z,95201.00
2019-05-25T14:24:09.130Z,95185.00
2019-05-25T14:26:39.596Z,95184.00
2019-05-25T14:29:10.135Z,95181.00
2019-05-25T14:31:45.486Z,95186.00
2019-05-25T14:34:14.900Z,95187.00
2019-05-25T14:36:45.333Z,95191.00
2019-05-25T14:39:15.862Z,95190.00
2019-05-25T14:41:46.419Z,95196.00
2019-05-25T14:44:16.905Z,95192.00
2019-05-25T14:46:47.291Z,95191.00
2019-05-25T14:49:17.839Z,95194.00
2019-05-25T14:51:48.393Z,95194.00
2019-05-25T14:54:18.830Z,95187.00
2019-05-25T14:56:49.219Z,95190.00
2019-05-25T14:59:19.705Z,95195.00
2019-05-25T15:02:02.099Z,95194.00
2019-05-25T15:04:22.347Z,95204.00
2019-05-25T15:06:52.859Z,95201.00
2019-05-25T15:09:23.428Z,95204.00
2019-05-25T15:11:54.179Z,95208.00
2019-05-25T15:14:24.992Z,95213.00
2019-05-25T15:16:55.492Z,95212.00
2019-05-25T15:19:26.088Z,95216.00
2019-05-25T15:21:56.591Z,95215.00
2019-05-25T15:24:27.133Z,95213.00
2019-05-25T15:26:57.579Z,95218.00
2019-05-25T15:29:28.174Z,95227.00
2019-05-25T15:31:58.587Z,95240.00
2019-05-25T15:34:29.160Z,95239.00
2019-05-25T15:36:59.604Z,95243.00
2019-05-25T15:39:30.212Z,95247.00
2019-05-25T15:42:00.659Z,95247.00
2019-05-25T15:44:31.299Z,95249.00
2019-05-25T15:47:05.156Z,95253.00
2019-05-25T15:49:36.998Z,95251.00
2019-05-25T15:52:17.780Z,95247.00
2019-05-25T15:54:53.405Z,95248.00
2019-05-25T15:57:23.837Z,95248.00
2019-05-25T16:00:01.596Z,95256.00
2019-05-25T16:02:36.823Z,95251.00
2019-05-25T16:05:04.869Z,95244.00
2019-05-25T16:07:40.897Z,95244.00
2019-05-25T16:10:11.898Z,95247.00
2019-05-25T16:12:42.775Z,95246.00
2019-05-25T16:15:15.420Z,95243.00
2019-05-25T16:17:46.098Z,95242.00
2019-05-25T16:20:22.637Z,95251.00
2019-05-25T16:22:53.126Z,95248.00
2019-05-25T16:25:23.570Z,95256.00
2019-05-25T16:27:53.995Z,95252.00
2019-05-25T16:30:24.543Z,95256.00
2019-05-25T16:35:31.056Z,95261.00
2019-05-25T16:37:07.712Z,95264.00
2019-05-25T16:38:01.990Z,95266.00
2019-05-25T16:40:32.967Z,95264.00
2019-05-25T16:43:03.364Z,95267.00
2019-05-25T16:45:33.811Z,95270.00
2019-05-25T16:48:04.936Z,95277.00
2019-05-25T16:50:35.417Z,95277.00
2019-05-25T16:53:05.902Z,95277.00
2019-05-25T16:55:36.367Z,95281.00
2019-05-25T16:58:06.788Z,95287.00
2019-05-25T17:00:37.351Z,95283.00
2019-05-25T17:03:07.866Z,95282.00
2019-05-25T17:05:38.289Z,95287.00
2019-05-25T17:08:08.741Z,95281.00
2019-05-25T17:10:39.298Z,95293.00
2019-05-25T17:13:09.738Z,95310.00
2019-05-25T17:15:40.198Z,95294.00
2019-05-25T17:18:10.629Z,95290.00
2019-05-25T17:20:41.104Z,95291.00
2019-05-25T17:23:11.550Z,95297.00
2019-05-25T17:25:41.987Z,95301.00
2019-05-25T17:28:12.392Z,95295.00
2019-05-25T17:30:47.601Z,95297.00
2019-05-25T17:33:18.002Z,95301.00
2019-05-25T17:35:49.064Z,95306.00
2019-05-25T17:38:19.570Z,95311.00
2019-05-25T17:40:49.988Z,95314.00
2019-05-25T17:43:20.487Z,95313.00
2019-05-25T17:45:50.937Z,95307.00
2019-05-25T17:48:21.371Z,95307.00
2019-05-25T17:50:51.769Z,95305.00
2019-05-25T17:53:22.285Z,95311.00
2019-05-25T17:55:52.712Z,95310.00
2019-05-25T17:58:23.125Z,95310.00
2019-05-25T18:01:00.313Z,95317.00
2019-05-25T18:03:31.351Z,95317.00
2019-05-25T18:06:02.009Z,95312.00
2019-05-25T18:08:32.838Z,95309.00
2019-05-25T18:11:03.510Z,95314.00
2019-05-25T18:13:34.187Z,95314.00
2019-05-25T18:16:05.225Z,95307.00
2019-05-25T18:18:42.455Z,95316.00
2019-05-25T18:21:23.101Z,95313.00
2019-05-25T18:24:06.397Z,95327.00
2019-05-25T18:26:37.173Z,95317.00
2019-05-25T18:29:26.878Z,95321.00
2019-05-25T18:32:06.187Z,95323.00
2019-05-25T18:34:48.121Z,95324.00
2019-05-25T18:37:19.047Z,95337.00
2019-05-25T18:39:50.379Z,95334.00
2019-05-25T18:42:21.343Z,95331.00
2019-05-25T18:44:52.072Z,95333.00
2019-05-25T18:47:22.483Z,95335.00
2019-05-25T18:49:53.631Z,95342.00
2019-05-25T18:52:24.181Z,95335.00
2019-05-25T18:54:55.304Z,95340.00
2019-05-25T18:57:31.585Z,95339.00
2019-05-25T19:00:02.297Z,95336.00
2019-05-25T19:02:33.319Z,95332.00
2019-05-25T19:05:39.816Z,95342.00
2019-05-25T19:08:32.180Z,95338.00
2019-05-25T19:11:05.171Z,95347.00
2019-05-25T19:13:36.948Z,95354.00
2019-05-25T19:16:09.051Z,95351.00
2019-05-25T19:18:40.930Z,95353.00
2019-05-25T19:21:12.780Z,95363.00
2019-05-25T19:23:46.295Z,95354.00
2019-05-25T19:26:38.319Z,95365.00
2019-05-25T19:29:25.601Z,95369.00
2019-05-25T19:31:57.155Z,95367.00
2019-05-25T19:34:28.136Z,95380.00
2019-05-25T19:37:03.487Z,95373.00
2019-05-25T19:39:34.079Z,95379.00
2019-05-25T19:42:05.460Z,95384.00
2019-05-25T19:44:36.481Z,95388.00
2019-05-25T19:47:08.396Z,95388.00
2019-05-25T19:49:39.223Z,95389.00
2019-05-25T19:52:10.085Z,95396.00
2019-05-25T19:54:46.703Z,95404.00
2019-05-25T19:57:18.159Z,95398.00
2019-05-25T19:59:55.570Z,95396.00
2019-05-25T20:02:26.191Z,95400.00
2019-05-25T20:05:13.106Z,95395.00
2019-05-25T20:07:33.431Z,95399.00
2019-05-25T20:10:05.792Z,95406.00
2019-05-25T20:12:39.859Z,95402.00
2019-05-25T20:15:18.492Z,95416.00
2019-05-25T20:17:48.952Z,95408.00
2019-05-25T20:20:20.921Z,95411.00
2019-05-25T20:22:51.425Z,95418.00
2019-05-25T20:25:21.926Z,95419.00
2019-05-25T20:27:52.425Z,95420.00
2019-05-25T20:33:23.080Z,95428.00
2019-05-25T20:35:47.060Z,95434.00
2019-05-25T20:38:54.191Z,95434.00
2019-05-25T20:41:40.915Z,95436.00
2019-05-25T20:44:11.555Z,95432.00
2019-05-25T20:46:42.259Z,95425.00
2019-05-25T20:49:17.360Z,95434.00
2019-05-25T20:51:47.995Z,95436.00
2019-05-25T20:54:19.225Z,95435.00
2019-05-25T20:56:51.832Z,95441.00
2019-05-25T20:59:24.261Z,95440.00
2019-05-25T21:01:55.715Z,95447.00
2019-05-25T21:04:26.510Z,95446.00
2019-05-25T21:06:57.240Z,95444.00
2019-05-25T21:09:27.684Z,95444.00
2019-05-25T21:11:58.082Z,95445.00
2019-05-25T21:14:28.555Z,95452.00
2019-05-25T21:16:58.937Z,95446.00
2019-05-25T21:19:29.361Z,95449.00
2019-05-25T21:21:59.788Z,95451.00
2019-05-25T21:24:30.218Z,95460.00
2019-05-25T21:27:00.626Z,95453.00
2019-05-25T21:29:31.128Z,95454.00
2019-05-25T21:32:01.539Z,95465.00
2019-05-25T21:34:31.992Z,95463.00
2019-05-25T21:37:02.408Z,95462.00
2019-05-25T21:39:32.896Z,95458.00
2019-05-25T21:42:03.464Z,95463.00
2019-05-25T21:44:34.017Z,95465.00
2019-05-25T21:47:04.557Z,95462.00
2019-05-25T21:49:34.998Z,95461.00
2019-05-25T21:52:05.534Z,95463.00
2019-05-25T21:54:35.932Z,95465.00
2019-05-25T21:57:06.366Z,95466.00
2019-05-25T21:59:36.821Z,95464.00
2019-05-25T22:02:07.514Z,95466.00
2019-05-25T22:04:37.956Z,95468.00
2019-05-25T22:07:08.390Z,95463.00
2019-05-25T22:09:38.797Z,95463.00
2019-05-25T22:12:09.320Z,95460.00
2019-05-25T22:14:40.144Z,95460.00
2019-05-25T22:17:10.970Z,95463.00
2019-05-25T22:19:41.410Z,95461.00
2019-05-25T22:22:12.411Z,95459.00
2019-05-25T22:24:42.819Z,95458.00
2019-05-25T22:27:16.740Z,95451.00
2019-05-25T22:29:47.147Z,95460.00
2019-05-25T22:32:17.648Z,95463.00
2019-05-25T22:34:48.134Z,95446.00
2019-05-25T22:37:18.597Z,95452.00
2019-05-25T22:39:49.054Z,95447.00
2019-05-25T22:42:20.112Z,95448.00
2019-05-25T22:44:50.453Z,95449.00
2019-05-25T22:47:20.933Z,95452.00
2019-05-25T22:49:51.349Z,95450.00
2019-05-25T22:52:21.792Z,95451.00
2019-05-25T22:54:52.191Z,95449.00
2019-05-25T22:57:22.619Z,95454.00
2019-05-25T22:59:53.038Z,95458.00
2019-05-25T23:02:23.576Z,95453.00
2019-05-25T23:04:54.031Z,95449.00
2019-05-25T23:07:24.937Z,95447.00
2019-05-25T23:09:56.405Z,95454.00
2019-05-25T23:12:26.849Z,95442.00
2019-05-25T23:14:57.277Z,95448.00
2019-05-25T23:17:27.809Z,95448.00
2019-05-25T23:19:58.263Z,95448.00
2019-05-25T23:22:28.687Z,95451.00
2019-05-25T23:24:59.124Z,95452.00
2019-05-25T23:27:29.584Z,95447.00
2019-05-25T23:30:00.061Z,95440.00
2019-05-25T23:32:30.487Z,95446.00
2019-05-25T23:35:00.867Z,95447.00
2019-05-25T23:37:31.283Z,95448.00
2019-05-25T23:40:01.990Z,95441.00
2019-05-25T23:42:32.449Z,95449.00
2019-05-25T23:45:02.849Z,95449.00
2019-05-25T23:47:33.265Z,95445.00
2019-05-25T23:50:03.747Z,95450.00
2019-05-25T23:52:34.168Z,95448.00
2019-05-25T23:55:05.539Z,95449.00
2019-05-25T23:57:36.084Z,95445.00
